createdAt,value
2017-04-01T00:00:57.762Z,1008.93
2017-04-01T00:02:08.005Z,1008.95
2017-04-01T00:03:17.623Z,1008.93
2017-04-01T00:04:27.566Z,1008.93
2017-04-01T00:05:37.187Z,1008.94
2017-04-01T00:06:47.123Z,1008.93
2017-04-01T00:07:57.365Z,1008.96
2017-04-01T00:09:07.298Z,1008.91
2017-04-01T00:10:17.550Z,1008.94
2017-04-01T00:11:27.800Z,1008.93
2017-04-01T00:12:37.736Z,1008.94
2017-04-01T00:13:47.982Z,1008.9
2017-04-01T00:14:58.227Z,1008.89
2017-04-01T00:16:08.479Z,1008.9
2017-04-01T00:17:18.723Z,1008.87
2017-04-01T00:18:28.653Z,1008.89
2017-04-01T00:19:38.890Z,1008.88
2017-04-01T00:20:48.504Z,1008.87
2017-04-01T00:21:58.120Z,1008.9
2017-04-01T00:23:08.061Z,1008.85
2017-04-01T00:24:17.675Z,1008.86
2017-04-01T00:25:27.915Z,1008.82
2017-04-01T00:26:38.156Z,1008.82
2017-04-01T00:27:47.777Z,1008.8
2017-04-01T00:28:57.708Z,1008.8
2017-04-01T00:30:07.950Z,1008.75
2017-04-01T00:31:17.876Z,1008.75
2017-04-01T00:32:27.174Z,1008.81
2017-04-01T00:33:37.105Z,1008.75
2017-04-01T00:34:46.410Z,1008.75
2017-04-01T00:35:56.336Z,1008.71
2017-04-01T00:37:06.572Z,1008.72
2017-04-01T00:38:16.825Z,1008.69
2017-04-01T00:39:27.103Z,1008.72
2017-04-01T00:40:36.716Z,1008.71
2017-04-01T00:41:46.661Z,1008.68
2017-04-01T00:42:56.906Z,1008.66
2017-04-01T00:44:07.143Z,1008.69
2017-04-01T00:45:17.390Z,1008.7
2017-04-01T00:46:27.319Z,1008.66
2017-04-01T00:47:37.566Z,1008.64
2017-04-01T00:48:47.801Z,1008.68
2017-04-01T00:49:57.733Z,1008.67
2017-04-01T00:51:07.663Z,1008.64
2017-04-01T00:52:17.904Z,1008.61
2017-04-01T00:53:28.146Z,1008.63
2017-04-01T00:54:37.757Z,1008.66
2017-04-01T00:55:47.997Z,1008.63
2017-04-01T00:56:57.929Z,1008.6
2017-04-01T00:58:07.866Z,1008.59
2017-04-01T00:59:17.789Z,1008.6
2017-04-01T01:00:27.715Z,1008.61
2017-04-01T01:01:37.960Z,1008.59
2017-04-01T01:02:47.889Z,1008.63
2017-04-01T01:03:57.817Z,1008.63
2017-04-01T01:05:07.450Z,1008.63
2017-04-01T01:06:17.378Z,1008.64
2017-04-01T01:07:27.630Z,1008.61
2017-04-01T01:08:37.556Z,1008.61
2017-04-01T01:09:47.499Z,1008.62
2017-04-01T01:10:57.457Z,1008.61
2017-04-01T01:12:07.698Z,1008.6
2017-04-01T01:13:17.931Z,1008.56
2017-04-01T01:14:28.171Z,1008.54
2017-04-01T01:15:38.417Z,1008.53
2017-04-01T01:16:48.671Z,1008.5
2017-04-01T01:17:58.927Z,1008.51
2017-04-01T01:19:08.855Z,1008.54
2017-04-01T01:20:18.780Z,1008.56
2017-04-01T01:21:29.033Z,1008.58
2017-04-01T01:22:38.654Z,1008.62
2017-04-01T01:23:48.895Z,1008.59
2017-04-01T01:24:58.823Z,1008.58
2017-04-01T01:26:09.063Z,1008.57
2017-04-01T01:27:18.984Z,1008.53
2017-04-01T01:28:29.224Z,1008.53
2017-04-01T01:29:39.148Z,1008.5
2017-04-01T01:30:49.400Z,1008.51
2017-04-01T01:31:59.651Z,1008.49
2017-04-01T01:33:09.892Z,1008.47
2017-04-01T01:34:20.142Z,1008.46
2017-04-01T01:35:30.072Z,1008.46
2017-04-01T01:36:40.004Z,1008.5
2017-04-01T01:37:50.251Z,1008.53
2017-04-01T01:39:00.494Z,1008.51
2017-04-01T01:40:10.746Z,1008.55
2017-04-01T01:41:20.674Z,1008.49
2017-04-01T01:42:30.293Z,1008.5
2017-04-01T01:43:40.532Z,1008.51
2017-04-01T01:44:50.150Z,1008.52
2017-04-01T01:46:00.391Z,1008.49
2017-04-01T01:47:10.631Z,1008.52
2017-04-01T01:48:20.875Z,1008.47
2017-04-01T01:49:30.810Z,1008.49
2017-04-01T01:50:41.050Z,1008.48
2017-04-01T01:51:50.982Z,1008.47
2017-04-01T01:53:01.229Z,1008.48
2017-04-01T01:54:11.471Z,1008.45
2017-04-01T01:55:21.745Z,1008.45
2017-04-01T01:56:31.352Z,1008.42
2017-04-01T01:57:41.593Z,1008.43
2017-04-01T01:58:51.834Z,1008.39
2017-04-01T02:00:02.072Z,1008.38
2017-04-01T02:01:12.005Z,1008.39
2017-04-01T02:02:21.966Z,1008.35
2017-04-01T02:03:31.895Z,1008.38
2017-04-01T02:04:41.522Z,1008.33
2017-04-01T02:05:51.465Z,1008.32
2017-04-01T02:07:01.392Z,1008.33
2017-04-01T02:08:11.316Z,1008.29
2017-04-01T02:09:21.561Z,1008.28
2017-04-01T02:10:31.182Z,1008.29
2017-04-01T02:11:41.426Z,1008.27
2017-04-01T02:12:51.355Z,1008.25
2017-04-01T02:14:01.284Z,1008.26
2017-04-01T02:15:11.221Z,1008.24
2017-04-01T02:16:21.148Z,1008.26
2017-04-01T02:17:31.397Z,1008.22
2017-04-01T02:18:41.637Z,1008.25
2017-04-01T02:19:51.562Z,1008.26
2017-04-01T02:21:01.801Z,1008.25
2017-04-01T02:22:11.421Z,1008.25
2017-04-01T02:23:21.042Z,1008.26
2017-04-01T02:24:31.317Z,1008.29
2017-04-01T02:25:41.268Z,1008.29
2017-04-01T02:26:51.206Z,1008.32
2017-04-01T02:28:01.131Z,1008.33
2017-04-01T02:29:10.786Z,1008.35
2017-04-01T02:30:21.030Z,1008.34
2017-04-01T02:31:30.969Z,1008.34
2017-04-01T02:32:40.901Z,1008.37
2017-04-01T02:33:51.158Z,1008.43
2017-04-01T02:35:01.411Z,1008.38
2017-04-01T02:36:11.342Z,1008.41
2017-04-01T02:37:21.587Z,1008.42
2017-04-01T02:38:31.526Z,1008.46
2017-04-01T02:39:41.462Z,1008.43
2017-04-01T02:40:51.108Z,1008.4
2017-04-01T02:42:00.725Z,1008.39
2017-04-01T02:43:10.963Z,1008.41
2017-04-01T02:44:21.199Z,1008.36
2017-04-01T02:45:31.438Z,1008.39
2017-04-01T02:46:41.369Z,1008.39
2017-04-01T02:47:51.614Z,1008.38
2017-04-01T02:49:01.225Z,1008.36
2017-04-01T02:50:11.463Z,1008.34
2017-04-01T02:51:21.705Z,1008.35
2017-04-01T02:52:31.632Z,1008.34
2017-04-01T02:53:41.874Z,1008.32
2017-04-01T02:54:52.125Z,1008.35
2017-04-01T02:56:02.061Z,1008.38
2017-04-01T02:57:12.341Z,1008.35
2017-04-01T02:58:22.587Z,1008.35
2017-04-01T02:59:32.830Z,1008.35
2017-04-01T03:00:42.753Z,1008.39
2017-04-01T03:01:52.680Z,1008.41
2017-04-01T03:03:02.924Z,1008.43
2017-04-01T03:04:12.874Z,1008.41
2017-04-01T03:05:22.807Z,1008.42
2017-04-01T03:06:33.051Z,1008.44
2017-04-01T03:07:42.984Z,1008.44
2017-04-01T03:08:53.255Z,1008.43
2017-04-01T03:10:03.503Z,1008.44
2017-04-01T03:11:13.116Z,1008.42
2017-04-01T03:12:23.047Z,1008.4
2017-04-01T03:13:33.291Z,1008.39
2017-04-01T03:14:43.532Z,1008.35
2017-04-01T03:15:53.462Z,1008.34
2017-04-01T03:17:03.073Z,1008.38
2017-04-01T03:18:13.320Z,1008.37
2017-04-01T03:19:23.246Z,1008.37
2017-04-01T03:20:32.872Z,1008.38
2017-04-01T03:21:42.795Z,1008.4
2017-04-01T03:22:53.034Z,1008.41
2017-04-01T03:24:03.275Z,1008.38
2017-04-01T03:25:12.893Z,1008.4
2017-04-01T03:26:22.822Z,1008.41
2017-04-01T03:27:33.069Z,1008.37
2017-04-01T03:28:42.685Z,1008.41
2017-04-01T03:29:52.616Z,1008.36
2017-04-01T03:31:02.545Z,1008.38
2017-04-01T03:32:12.475Z,1008.34
2017-04-01T03:33:22.734Z,1008.35
2017-04-01T03:34:32.983Z,1008.34
2017-04-01T03:35:42.915Z,1008.35
2017-04-01T03:36:53.161Z,1008.34
2017-04-01T03:38:03.402Z,1008.35
2017-04-01T03:39:13.331Z,1008.36
2017-04-01T03:40:22.948Z,1008.4
2017-04-01T03:41:33.188Z,1008.37
2017-04-01T03:42:43.119Z,1008.37
2017-04-01T03:43:53.363Z,1008.36
2017-04-01T03:45:03.605Z,1008.39
2017-04-01T03:46:13.841Z,1008.36
2017-04-01T03:47:24.082Z,1008.35
2017-04-01T03:48:33.699Z,1008.36
2017-04-01T03:49:43.314Z,1008.36
2017-04-01T03:50:53.243Z,1008.38
2017-04-01T03:52:03.484Z,1008.33
2017-04-01T03:53:13.728Z,1008.33
2017-04-01T03:54:23.966Z,1008.33
2017-04-01T03:55:33.898Z,1008.32
2017-04-01T03:56:43.832Z,1008.35
2017-04-01T03:57:53.764Z,1008.37
2017-04-01T03:59:03.693Z,1008.37
2017-04-01T04:00:13.941Z,1008.36
2017-04-01T04:01:23.874Z,1008.33
2017-04-01T04:02:34.116Z,1008.33
2017-04-01T04:03:44.382Z,1008.32
2017-04-01T04:04:54.309Z,1008.38
2017-04-01T04:06:04.547Z,1008.32
2017-04-01T04:07:14.478Z,1008.36
2017-04-01T04:08:24.728Z,1008.33
2017-04-01T04:09:34.654Z,1008.31
2017-04-01T04:10:44.275Z,1008.34
2017-04-01T04:11:54.517Z,1008.31
2017-04-01T04:13:04.443Z,1008.32
2017-04-01T04:14:14.376Z,1008.38
2017-04-01T04:15:24.619Z,1008.4
2017-04-01T04:16:34.861Z,1008.38
2017-04-01T04:17:45.112Z,1008.4
2017-04-01T04:18:55.039Z,1008.41
2017-04-01T04:20:05.280Z,1008.41
2017-04-01T04:21:15.532Z,1008.42
2017-04-01T04:22:25.461Z,1008.39
2017-04-01T04:23:35.079Z,1008.38
2017-04-01T04:24:45.005Z,1008.39
2017-04-01T04:25:53.992Z,1008.37
2017-04-01T04:27:03.916Z,1008.38
2017-04-01T04:28:13.847Z,1008.38
2017-04-01T04:29:24.104Z,1008.37
2017-04-01T04:30:34.346Z,1008.41
2017-04-01T04:31:44.599Z,1008.42
2017-04-01T04:32:54.842Z,1008.45
2017-04-01T04:34:04.777Z,1008.48
2017-04-01T04:35:14.702Z,1008.48
2017-04-01T04:36:25.003Z,1008.53
2017-04-01T04:37:35.242Z,1008.54
2017-04-01T04:38:45.483Z,1008.5
2017-04-01T04:39:55.718Z,1008.47
2017-04-01T04:41:05.351Z,1008.47
2017-04-01T04:42:15.286Z,1008.46
2017-04-01T04:43:25.528Z,1008.49
2017-04-01T04:44:35.454Z,1008.52
2017-04-01T04:45:45.389Z,1008.54
2017-04-01T04:46:55.323Z,1008.54
2017-04-01T04:48:05.571Z,1008.54
2017-04-01T04:49:15.812Z,1008.61
2017-04-01T04:50:25.737Z,1008.58
2017-04-01T04:51:35.980Z,1008.58
2017-04-01T04:52:46.215Z,1008.59
2017-04-01T04:53:56.455Z,1008.62
2017-04-01T04:55:06.699Z,1008.6
2017-04-01T04:56:16.625Z,1008.65
2017-04-01T04:57:26.866Z,1008.6
2017-04-01T04:58:37.109Z,1008.64
2017-04-01T04:59:47.034Z,1008.62
2017-04-01T05:00:56.965Z,1008.63
2017-04-01T05:02:06.899Z,1008.63
2017-04-01T05:03:16.823Z,1008.7
2017-04-01T05:04:27.064Z,1008.66
2017-04-01T05:05:37.311Z,1008.64
2017-04-01T05:06:46.920Z,1008.63
2017-04-01T05:07:56.224Z,1008.61
2017-04-01T05:09:06.151Z,1008.65
2017-04-01T05:10:16.387Z,1008.64
2017-04-01T05:11:26.001Z,1008.63
2017-04-01T05:12:35.613Z,1008.61
2017-04-01T05:13:45.544Z,1008.61
2017-04-01T05:14:55.785Z,1008.6
2017-04-01T05:16:05.715Z,1008.61
2017-04-01T05:17:15.973Z,1008.61
2017-04-01T05:18:26.221Z,1008.58
2017-04-01T05:19:36.462Z,1008.56
2017-04-01T05:20:46.075Z,1008.61
2017-04-01T05:21:56.312Z,1008.66
2017-04-01T05:23:06.236Z,1008.64
2017-04-01T05:24:16.165Z,1008.69
2017-04-01T05:25:26.093Z,1008.67
2017-04-01T05:26:36.335Z,1008.71
2017-04-01T05:27:45.946Z,1008.69
2017-04-01T05:28:55.880Z,1008.71
2017-04-01T05:30:05.492Z,1008.74
2017-04-01T05:31:15.739Z,1008.73
2017-04-01T05:32:25.668Z,1008.66
2017-04-01T05:33:35.911Z,1008.73
2017-04-01T05:34:45.840Z,1008.72
2017-04-01T05:35:56.091Z,1008.71
2017-04-01T05:37:06.025Z,1008.68
2017-04-01T05:38:15.637Z,1008.68
2017-04-01T05:39:24.938Z,1008.71
2017-04-01T05:40:34.866Z,1008.77
2017-04-01T05:41:44.789Z,1008.75
2017-04-01T05:42:55.033Z,1008.72
2017-04-01T05:44:04.973Z,1008.74
2017-04-01T05:45:15.213Z,1008.72
2017-04-01T05:46:25.466Z,1008.71
2017-04-01T05:47:35.716Z,1008.72
2017-04-01T05:48:45.642Z,1008.76
2017-04-01T05:49:55.565Z,1008.8
2017-04-01T05:51:05.183Z,1008.81
2017-04-01T05:52:15.107Z,1008.78
2017-04-01T05:53:24.722Z,1008.8
2017-04-01T05:54:34.655Z,1008.76
2017-04-01T05:55:44.591Z,1008.76
2017-04-01T05:56:54.831Z,1008.78
2017-04-01T05:58:04.163Z,1008.77
2017-04-01T05:59:14.093Z,1008.79
2017-04-01T06:00:24.332Z,1008.75
2017-04-01T06:01:34.574Z,1008.77
2017-04-01T06:02:44.828Z,1008.76
2017-04-01T06:03:55.065Z,1008.76
2017-04-01T06:05:05.306Z,1008.79
2017-04-01T06:06:15.242Z,1008.76
2017-04-01T06:07:25.172Z,1008.79
2017-04-01T06:08:35.098Z,1008.76
2017-04-01T06:09:45.020Z,1008.77
2017-04-01T06:10:55.267Z,1008.76
2017-04-01T06:12:05.510Z,1008.74
2017-04-01T06:13:15.125Z,1008.74
2017-04-01T06:14:25.053Z,1008.69
2017-04-01T06:15:34.666Z,1008.71
2017-04-01T06:16:44.910Z,1008.72
2017-04-01T06:17:54.525Z,1008.74
2017-04-01T06:19:04.765Z,1008.74
2017-04-01T06:20:14.381Z,1008.75
2017-04-01T06:21:24.313Z,1008.74
2017-04-01T06:22:34.562Z,1008.7
2017-04-01T06:23:44.490Z,1008.76
2017-04-01T06:24:54.726Z,1008.72
2017-04-01T06:26:04.973Z,1008.73
2017-04-01T06:27:14.909Z,1008.76
2017-04-01T06:28:24.837Z,1008.77
2017-04-01T06:29:34.761Z,1008.73
2017-04-01T06:30:45.101Z,1008.73
2017-04-01T06:31:55.342Z,1008.74
2017-04-01T06:33:05.584Z,1008.76
2017-04-01T06:34:15.822Z,1008.75
2017-04-01T06:35:25.748Z,1008.75
2017-04-01T06:36:35.987Z,1008.72
2017-04-01T06:37:46.231Z,1008.74
2017-04-01T06:38:56.476Z,1008.76
2017-04-01T06:40:06.407Z,1008.76
2017-04-01T06:41:16.649Z,1008.75
2017-04-01T06:42:26.574Z,1008.75
2017-04-01T06:43:36.232Z,1008.74
2017-04-01T06:44:46.158Z,1008.76
2017-04-01T06:45:56.081Z,1008.76
2017-04-01T06:47:06.319Z,1008.73
2017-04-01T06:48:15.932Z,1008.75
2017-04-01T06:49:26.173Z,1008.79
2017-04-01T06:50:35.783Z,1008.76
2017-04-01T06:51:46.028Z,1008.79
2017-04-01T06:52:56.278Z,1008.8
2017-04-01T06:54:06.205Z,1008.77
2017-04-01T06:55:16.452Z,1008.8
2017-04-01T06:56:26.690Z,1008.83
2017-04-01T06:57:36.938Z,1008.8
2017-04-01T06:58:47.173Z,1008.81
2017-04-01T06:59:57.415Z,1008.8
2017-04-01T07:01:07.666Z,1008.82
2017-04-01T07:02:17.918Z,1008.83
2017-04-01T07:03:27.849Z,1008.85
2017-04-01T07:04:37.781Z,1008.82
2017-04-01T07:05:48.024Z,1008.81
2017-04-01T07:06:57.640Z,1008.85
2017-04-01T07:08:07.891Z,1008.85
2017-04-01T07:09:17.812Z,1008.84
2017-04-01T07:10:28.051Z,1008.79
2017-04-01T07:11:38.317Z,1008.82
2017-04-01T07:12:48.556Z,1008.79
2017-04-01T07:13:58.483Z,1008.81
2017-04-01T07:15:08.419Z,1008.81
2017-04-01T07:16:18.662Z,1008.8
2017-04-01T07:17:28.591Z,1008.82
2017-04-01T07:18:38.517Z,1008.81
2017-04-01T07:19:48.445Z,1008.87
2017-04-01T07:20:58.067Z,1008.86
2017-04-01T07:22:08.005Z,1008.88
2017-04-01T07:23:17.616Z,1008.85
2017-04-01T07:24:27.547Z,1008.84
2017-04-01T07:25:37.481Z,1008.89
2017-04-01T07:26:47.102Z,1008.87
2017-04-01T07:27:57.351Z,1008.85
2017-04-01T07:29:07.279Z,1008.83
2017-04-01T07:30:17.515Z,1008.88
2017-04-01T07:31:27.758Z,1008.87
2017-04-01T07:32:37.689Z,1008.85
2017-04-01T07:33:47.304Z,1008.88
2017-04-01T07:34:57.545Z,1008.88
2017-04-01T07:36:07.470Z,1008.83
2017-04-01T07:37:17.401Z,1008.86
2017-04-01T07:38:26.714Z,1008.85
2017-04-01T07:39:36.642Z,1008.89
2017-04-01T07:40:46.890Z,1008.91
2017-04-01T07:41:56.507Z,1008.92
2017-04-01T07:43:06.749Z,1008.95
2017-04-01T07:44:16.364Z,1008.96
2017-04-01T07:45:26.293Z,1008.96
2017-04-01T07:46:35.900Z,1008.92
2017-04-01T07:47:46.136Z,1008.95
2017-04-01T07:48:56.379Z,1008.98
2017-04-01T07:50:06.311Z,1008.99
2017-04-01T07:51:16.242Z,1008.97
2017-04-01T07:52:26.167Z,1008.96
2017-04-01T07:53:36.098Z,1008.97
2017-04-01T07:54:45.083Z,1008.95
2017-04-01T07:55:55.016Z,1008.99
2017-04-01T07:57:05.257Z,1008.97
2017-04-01T07:58:15.499Z,1008.95
2017-04-01T07:59:25.740Z,1008.95
2017-04-01T08:00:35.987Z,1008.94
2017-04-01T08:01:45.601Z,1008.95
2017-04-01T08:02:55.845Z,1008.97
2017-04-01T08:04:05.784Z,1008.94
2017-04-01T08:05:15.718Z,1008.96
2017-04-01T08:06:25.024Z,1008.97
2017-04-01T08:07:35.265Z,1008.95
2017-04-01T08:08:45.503Z,1008.99
2017-04-01T08:09:55.117Z,1009.01
2017-04-01T08:11:05.044Z,1008.95
2017-04-01T08:12:14.976Z,1009.01
2017-04-01T08:13:24.586Z,1008.98
2017-04-01T08:14:34.525Z,1009
2017-04-01T08:15:44.764Z,1008.96
2017-04-01T08:16:54.072Z,1008.98
2017-04-01T08:18:03.998Z,1008.96
2017-04-01T08:19:13.926Z,1008.97
2017-04-01T08:20:23.851Z,1008.93
2017-04-01T08:21:33.777Z,1008.93
2017-04-01T08:22:44.021Z,1008.94
2017-04-01T08:23:53.633Z,1008.94
2017-04-01T08:25:03.561Z,1008.91
2017-04-01T08:26:13.197Z,1008.92
2017-04-01T08:27:23.440Z,1008.92
2017-04-01T08:28:32.428Z,1008.91
2017-04-01T08:29:42.666Z,1008.93
2017-04-01T08:30:52.590Z,1008.88
2017-04-01T08:32:02.520Z,1008.9
2017-04-01T08:33:12.447Z,1008.95
2017-04-01T08:34:22.373Z,1008.92
2017-04-01T08:35:32.611Z,1008.93
2017-04-01T08:36:42.854Z,1008.93
2017-04-01T08:37:52.470Z,1008.9
2017-04-01T08:39:02.405Z,1008.93
2017-04-01T08:40:12.649Z,1008.9
2017-04-01T08:41:22.885Z,1008.88
2017-04-01T08:42:33.121Z,1008.89
2017-04-01T08:43:43.049Z,1008.9
2017-04-01T08:44:52.662Z,1008.85
2017-04-01T08:46:02.911Z,1008.83
2017-04-01T08:47:12.539Z,1008.86
2017-04-01T08:48:22.465Z,1008.82
2017-04-01T08:49:32.709Z,1008.83
2017-04-01T08:50:42.636Z,1008.83
2017-04-01T08:51:52.563Z,1008.82
2017-04-01T08:53:02.186Z,1008.81
2017-04-01T08:54:12.112Z,1008.8
2017-04-01T08:55:21.730Z,1008.81
2017-04-01T08:56:31.659Z,1008.77
2017-04-01T08:57:41.904Z,1008.76
2017-04-01T08:58:51.836Z,1008.71
2017-04-01T09:00:02.082Z,1008.75
2017-04-01T09:01:12.062Z,1008.74
2017-04-01T09:02:21.992Z,1008.71
2017-04-01T09:03:32.259Z,1008.7
2017-04-01T09:04:42.499Z,1008.71
2017-04-01T09:05:52.423Z,1008.7
2017-04-01T09:07:02.040Z,1008.7
2017-04-01T09:08:11.655Z,1008.71
2017-04-01T09:09:21.269Z,1008.69
2017-04-01T09:10:31.200Z,1008.73
2017-04-01T09:11:41.438Z,1008.73
2017-04-01T09:12:51.364Z,1008.7
2017-04-01T09:14:01.291Z,1008.68
2017-04-01T09:15:11.533Z,1008.66
2017-04-01T09:16:21.779Z,1008.68
2017-04-01T09:17:32.022Z,1008.67
2017-04-01T09:18:42.266Z,1008.67
2017-04-01T09:19:52.502Z,1008.66
2017-04-01T09:21:02.745Z,1008.69
2017-04-01T09:22:12.984Z,1008.67
2017-04-01T09:23:23.230Z,1008.71
2017-04-01T09:24:33.479Z,1008.7
2017-04-01T09:25:43.719Z,1008.7
2017-04-01T09:26:53.654Z,1008.71
2017-04-01T09:28:03.268Z,1008.71
2017-04-01T09:29:13.506Z,1008.69
2017-04-01T09:30:23.436Z,1008.68
2017-04-01T09:31:33.710Z,1008.67
2017-04-01T09:32:43.335Z,1008.67
2017-04-01T09:33:53.611Z,1008.67
2017-04-01T09:35:03.853Z,1008.67
2017-04-01T09:36:13.466Z,1008.66
2017-04-01T09:37:23.394Z,1008.67
2017-04-01T09:38:33.634Z,1008.66
2017-04-01T09:39:43.878Z,1008.65
2017-04-01T09:40:53.811Z,1008.64
2017-04-01T09:42:04.058Z,1008.65
2017-04-01T09:43:13.674Z,1008.64
2017-04-01T09:44:23.605Z,1008.64
2017-04-01T09:45:33.228Z,1008.67
2017-04-01T09:46:43.161Z,1008.68
2017-04-01T09:47:53.093Z,1008.63
2017-04-01T09:49:03.022Z,1008.64
2017-04-01T09:50:13.261Z,1008.62
2017-04-01T09:51:23.189Z,1008.61
2017-04-01T09:52:33.127Z,1008.64
2017-04-01T09:53:43.372Z,1008.62
2017-04-01T09:54:53.614Z,1008.61
2017-04-01T09:56:03.539Z,1008.64
2017-04-01T09:57:12.847Z,1008.6
2017-04-01T09:58:22.823Z,1008.62
2017-04-01T09:59:32.748Z,1008.63
2017-04-01T10:00:42.987Z,1008.6
2017-04-01T10:01:53.227Z,1008.61
2017-04-01T10:03:03.467Z,1008.57
2017-04-01T10:04:12.769Z,1008.6
2017-04-01T10:05:22.379Z,1008.63
2017-04-01T10:06:32.624Z,1008.58
2017-04-01T10:07:42.869Z,1008.6
2017-04-01T10:08:52.479Z,1008.62
2017-04-01T10:10:02.739Z,1008.57
2017-04-01T10:11:12.668Z,1008.61
2017-04-01T10:12:22.287Z,1008.59
2017-04-01T10:13:31.903Z,1008.6
2017-04-01T10:14:41.512Z,1008.62
2017-04-01T10:15:51.751Z,1008.64
2017-04-01T10:17:01.678Z,1008.56
2017-04-01T10:18:11.926Z,1008.56
2017-04-01T10:19:21.861Z,1008.57
2017-04-01T10:20:32.100Z,1008.55
2017-04-01T10:21:42.033Z,1008.53
2017-04-01T10:22:51.659Z,1008.54
2017-04-01T10:24:00.961Z,1008.54
2017-04-01T10:25:11.206Z,1008.5
2017-04-01T10:26:21.452Z,1008.54
2017-04-01T10:27:31.386Z,1008.53
2017-04-01T10:28:41.321Z,1008.53
2017-04-01T10:29:51.561Z,1008.52
2017-04-01T10:31:01.486Z,1008.5
2017-04-01T10:32:11.733Z,1008.51
2017-04-01T10:33:21.665Z,1008.48
2017-04-01T10:34:31.902Z,1008.47
2017-04-01T10:35:42.150Z,1008.48
2017-04-01T10:36:52.078Z,1008.47
2017-04-01T10:38:02.316Z,1008.49
2017-04-01T10:39:12.236Z,1008.48
2017-04-01T10:40:22.483Z,1008.45
2017-04-01T10:41:32.734Z,1008.49
2017-04-01T10:42:42.974Z,1008.46
2017-04-01T10:43:52.586Z,1008.42
2017-04-01T10:45:02.514Z,1008.4
2017-04-01T10:46:12.135Z,1008.37
2017-04-01T10:47:21.759Z,1008.39
2017-04-01T10:48:31.689Z,1008.39
2017-04-01T10:49:41.926Z,1008.34
2017-04-01T10:50:52.173Z,1008.4
2017-04-01T10:52:01.790Z,1008.36
2017-04-01T10:53:12.030Z,1008.34
2017-04-01T10:54:21.955Z,1008.27
2017-04-01T10:55:31.577Z,1008.3
2017-04-01T10:56:41.502Z,1008.28
2017-04-01T10:57:51.751Z,1008.26
2017-04-01T10:59:01.998Z,1008.24
2017-04-01T11:00:12.233Z,1008.27
2017-04-01T11:01:22.468Z,1008.28
2017-04-01T11:02:32.087Z,1008.26
2017-04-01T11:03:42.016Z,1008.26
2017-04-01T11:04:51.945Z,1008.25
2017-04-01T11:06:02.192Z,1008.24
2017-04-01T11:07:12.432Z,1008.26
2017-04-01T11:08:22.048Z,1008.21
2017-04-01T11:09:32.292Z,1008.23
2017-04-01T11:10:42.537Z,1008.28
2017-04-01T11:11:52.785Z,1008.28
2017-04-01T11:13:02.401Z,1008.21
2017-04-01T11:14:12.646Z,1008.24
2017-04-01T11:15:22.578Z,1008.22
2017-04-01T11:16:32.829Z,1008.22
2017-04-01T11:17:43.074Z,1008.2
2017-04-01T11:18:52.685Z,1008.21
2017-04-01T11:20:02.609Z,1008.24
2017-04-01T11:21:12.534Z,1008.22
2017-04-01T11:22:22.461Z,1008.22
2017-04-01T11:23:32.388Z,1008.21
2017-04-01T11:24:42.639Z,1008.15
2017-04-01T11:25:52.876Z,1008.15
2017-04-01T11:27:03.137Z,1008.16
2017-04-01T11:28:13.381Z,1008.15
2017-04-01T11:29:23.309Z,1008.15
2017-04-01T11:30:33.553Z,1008.14
2017-04-01T11:31:43.894Z,1008.08
2017-04-01T11:32:54.138Z,1008.09
2017-04-01T11:34:04.066Z,1008.07
2017-04-01T11:35:14.307Z,1008.15
2017-04-01T11:36:24.227Z,1008.07
2017-04-01T11:37:34.156Z,1008.05
2017-04-01T11:38:43.771Z,1008.04
2017-04-01T11:39:53.386Z,1008.05
2017-04-01T11:41:03.311Z,1008.07
2017-04-01T11:42:13.553Z,1008.04
2017-04-01T11:43:23.791Z,1008.01
2017-04-01T11:44:34.030Z,1008.03
2017-04-01T11:45:44.273Z,1007.98
2017-04-01T11:46:54.198Z,1007.97
2017-04-01T11:48:04.130Z,1008.01
2017-04-01T11:49:13.121Z,1008
2017-04-01T11:50:22.730Z,1008.01
2017-04-01T11:51:32.973Z,1008
2017-04-01T11:52:43.215Z,1007.97
2017-04-01T11:53:52.869Z,1007.95
2017-04-01T11:55:02.813Z,1007.96
2017-04-01T11:56:13.051Z,1007.96
2017-04-01T11:57:22.985Z,1007.9
2017-04-01T11:58:33.231Z,1007.92
2017-04-01T11:59:43.472Z,1007.92
2017-04-01T12:00:53.714Z,1007.93
2017-04-01T12:02:03.952Z,1007.95
2017-04-01T12:03:13.883Z,1007.93
2017-04-01T12:04:23.810Z,1007.88
2017-04-01T12:05:33.421Z,1007.87
2017-04-01T12:06:43.665Z,1007.87
2017-04-01T12:07:53.908Z,1007.86
2017-04-01T12:09:04.162Z,1007.82
2017-04-01T12:10:14.096Z,1007.86
2017-04-01T12:11:24.034Z,1007.81
2017-04-01T12:12:34.278Z,1007.81
2017-04-01T12:13:44.201Z,1007.8
2017-04-01T12:14:54.438Z,1007.77
2017-04-01T12:16:04.367Z,1007.73
2017-04-01T12:17:13.985Z,1007.74
2017-04-01T12:18:23.287Z,1007.72
2017-04-01T12:19:33.217Z,1007.8
2017-04-01T12:20:43.482Z,1007.74
2017-04-01T12:21:53.883Z,1007.75
2017-04-01T12:23:04.660Z,1007.79
2017-04-01T12:24:15.835Z,1007.76
2017-04-01T12:25:26.577Z,1007.73
2017-04-01T12:26:37.713Z,1007.71
2017-04-01T12:27:48.708Z,1007.7
2017-04-01T12:28:59.050Z,1007.68
2017-04-01T12:30:09.820Z,1007.66
2017-04-01T12:31:19.781Z,1007.68
2017-04-01T12:32:30.462Z,1007.67
2017-04-01T12:33:41.592Z,1007.67
2017-04-01T12:34:52.311Z,1007.68
2017-04-01T12:36:03.087Z,1007.63
2017-04-01T12:37:13.794Z,1007.67
2017-04-01T12:38:24.116Z,1007.65
2017-04-01T12:39:34.829Z,1007.71
2017-04-01T12:40:45.949Z,1007.68
2017-04-01T12:41:56.362Z,1007.66
2017-04-01T12:43:06.723Z,1007.69
2017-04-01T12:44:17.076Z,1007.66
2017-04-01T12:45:27.811Z,1007.63
2017-04-01T12:46:38.157Z,1007.63
2017-04-01T12:47:48.921Z,1007.58
2017-04-01T12:49:00.002Z,1007.6
2017-04-01T12:50:10.715Z,1007.6
2017-04-01T12:51:21.377Z,1007.61
2017-04-01T12:52:32.305Z,1007.58
2017-04-01T12:53:42.898Z,1007.56
2017-04-01T12:54:53.160Z,1007.5
2017-04-01T12:56:03.531Z,1007.47
2017-04-01T12:57:14.081Z,1007.48
2017-04-01T12:58:24.283Z,1007.5
2017-04-01T12:59:34.513Z,1007.5
2017-04-01T13:00:44.617Z,1007.46
2017-04-01T13:01:55.044Z,1007.5
2017-04-01T13:03:05.056Z,1007.45
2017-04-01T13:04:15.133Z,1007.42
2017-04-01T13:05:25.168Z,1007.42
2017-04-01T13:06:35.611Z,1007.41
2017-04-01T13:07:45.641Z,1007.4
2017-04-01T13:08:56.082Z,1007.42
2017-04-01T13:10:06.382Z,1007.38
2017-04-01T13:11:16.681Z,1007.36
2017-04-01T13:12:26.805Z,1007.38
2017-04-01T13:13:36.472Z,1007.35
2017-04-01T13:14:46.847Z,1007.36
2017-04-01T13:15:57.215Z,1007.31
2017-04-01T13:17:07.667Z,1007.34
2017-04-01T13:18:18.077Z,1007.31
2017-04-01T13:19:28.112Z,1007.24
2017-04-01T13:20:37.769Z,1007.23
2017-04-01T13:21:47.855Z,1007.24
2017-04-01T13:22:58.192Z,1007.27
2017-04-01T13:24:07.872Z,1007.23
2017-04-01T13:25:17.969Z,1007.22
2017-04-01T13:26:27.995Z,1007.26
2017-04-01T13:27:38.019Z,1007.23
2017-04-01T13:28:48.369Z,1007.23
2017-04-01T13:29:58.714Z,1007.21
2017-04-01T13:31:08.786Z,1007.19
2017-04-01T13:32:19.174Z,1007.19
2017-04-01T13:33:28.845Z,1007.14
2017-04-01T13:34:38.771Z,1007.19
2017-04-01T13:35:48.703Z,1007.16
2017-04-01T13:36:58.945Z,1007.14
2017-04-01T13:38:08.867Z,1007.12
2017-04-01T13:39:18.485Z,1007.14
2017-04-01T13:40:28.095Z,1007.09
2017-04-01T13:41:38.028Z,1007.08
2017-04-01T13:42:48.263Z,1007.06
2017-04-01T13:43:58.188Z,1007.05
2017-04-01T13:45:08.435Z,1007.08
2017-04-01T13:46:18.681Z,1007.09
2017-04-01T13:47:28.606Z,1007.08
2017-04-01T13:48:38.852Z,1007.08
2017-04-01T13:49:48.783Z,1007.02
2017-04-01T13:50:58.715Z,1007.01
2017-04-01T13:52:09.079Z,1007
2017-04-01T13:53:20.081Z,1007
2017-04-01T13:54:30.819Z,1006.99
2017-04-01T13:55:41.144Z,1006.94
2017-04-01T13:56:52.227Z,1006.98
2017-04-01T13:58:02.195Z,1006.97
2017-04-01T13:59:12.953Z,1006.96
2017-04-01T14:00:23.963Z,1006.93
2017-04-01T14:01:34.591Z,1006.88
2017-04-01T14:02:45.696Z,1006.92
2017-04-01T14:03:55.679Z,1006.94
2017-04-01T14:05:06.730Z,1006.88
2017-04-01T14:06:16.797Z,1006.86
2017-04-01T14:07:26.846Z,1006.86
2017-04-01T14:08:37.218Z,1006.86
2017-04-01T14:09:47.593Z,1006.86
2017-04-01T14:10:57.518Z,1006.82